sensor_id;sensor_type;location;lat;lon;timestamp;P1;durP1;ratioP1;P2;durP2;ratioP2
33786;SDS011;29742;51.540;9.358;2023-02-11T00:05:00;3.17;;;2.45;;
33786;SDS011;29742;51.540;9.358;2023-02-11T00:10:01;2.35;;;1.63;;
33786;SDS011;29742;51.540;9.358;2023-02-11T00:15:03;2.92;;;2.17;;
33786;SDS011;29742;51.540;9.358;2023-02-11T00:20:05;3.45;;;2.20;;
33786;SDS011;29742;51.540;9.358;2023-02-11T00:25:05;3.28;;;2.40;;
33786;SDS011;29742;51.540;9.358;2023-02-11T00:30:06;2.92;;;2.03;;
33786;SDS011;29742;51.540;9.358;2023-02-11T00:35:07;2.50;;;1.98;;
33786;SDS011;29742;51.540;9.358;2023-02-11T00:40:07;3.75;;;2.50;;
33786;SDS011;29742;51.540;9.358;2023-02-11T00:45:08;3.13;;;2.20;;
33786;SDS011;29742;51.540;9.358;2023-02-11T00:50:08;3.70;;;2.35;;
33786;SDS011;29742;51.540;9.358;2023-02-11T00:55:09;2.78;;;1.90;;
33786;SDS011;29742;51.540;9.358;2023-02-11T01:00:10;4.10;;;2.92;;
33786;SDS011;29742;51.540;9.358;2023-02-11T01:05:11;3.65;;;2.20;;
33786;SDS011;29742;51.540;9.358;2023-02-11T01:10:12;3.95;;;2.55;;
33786;SDS011;29742;51.540;9.358;2023-02-11T01:15:12;3.15;;;2.33;;
33786;SDS011;29742;51.540;9.358;2023-02-11T01:20:18;2.63;;;1.65;;
33786;SDS011;29742;51.540;9.358;2023-02-11T01:25:20;2.80;;;2.20;;
33786;SDS011;29742;51.540;9.358;2023-02-11T01:30:21;3.67;;;2.33;;
33786;SDS011;29742;51.540;9.358;2023-02-11T01:35:21;2.33;;;1.75;;
33786;SDS011;29742;51.540;9.358;2023-02-11T01:40:22;2.30;;;1.80;;
33786;SDS011;29742;51.540;9.358;2023-02-11T01:50:41;3.13;;;2.10;;
33786;SDS011;29742;51.540;9.358;2023-02-11T01:55:42;2.35;;;1.98;;
33786;SDS011;29742;51.540;9.358;2023-02-11T02:01:01;2.83;;;1.80;;
33786;SDS011;29742;51.540;9.358;2023-02-11T02:06:09;5.72;;;2.28;;
33786;SDS011;29742;51.540;9.358;2023-02-11T02:11:15;2.40;;;1.73;;
33786;SDS011;29742;51.540;9.358;2023-02-11T02:16:17;3.00;;;2.10;;
33786;SDS011;29742;51.540;9.358;2023-02-11T02:26:58;2.15;;;1.75;;
33786;SDS011;29742;51.540;9.358;2023-02-11T02:32:16;4.28;;;2.45;;
33786;SDS011;29742;51.540;9.358;2023-02-11T02:42:35;3.45;;;2.35;;
33786;SDS011;29742;51.540;9.358;2023-02-11T02:47:37;3.72;;;2.20;;
33786;SDS011;29742;51.540;9.358;2023-02-11T03:08:29;6.32;;;2.42;;
33786;SDS011;29742;51.540;9.358;2023-02-11T03:13:32;4.47;;;2.72;;
33786;SDS011;29742;51.540;9.358;2023-02-11T03:18:34;3.35;;;2.30;;
33786;SDS011;29742;51.540;9.358;2023-02-11T03:23:37;3.67;;;2.30;;
33786;SDS011;29742;51.540;9.358;2023-02-11T03:33:54;2.88;;;1.85;;
33786;SDS011;29742;51.540;9.358;2023-02-11T03:38:58;2.33;;;1.77;;
33786;SDS011;29742;51.540;9.358;2023-02-11T03:43:59;2.13;;;1.70;;
33786;SDS011;29742;51.540;9.358;2023-02-11T03:49:01;2.45;;;1.65;;
33786;SDS011;29742;51.540;9.358;2023-02-11T03:54:04;2.28;;;1.65;;
33786;SDS011;29742;51.540;9.358;2023-02-11T03:59:08;1.65;;;1.33;;
33786;SDS011;29742;51.540;9.358;2023-02-11T04:04:08;3.05;;;2.00;;
33786;SDS011;29742;51.540;9.358;2023-02-11T04:09:09;2.53;;;1.88;;
33786;SDS011;29742;51.540;9.358;2023-02-11T04:14:10;2.50;;;1.40;;
33786;SDS011;29742;51.540;9.358;2023-02-11T04:19:10;2.75;;;1.58;;
33786;SDS011;29742;51.540;9.358;2023-02-11T04:24:11;1.48;;;1.08;;
33786;SDS011;29742;51.540;9.358;2023-02-11T04:29:11;2.45;;;1.27;;
33786;SDS011;29742;51.540;9.358;2023-02-11T04:34:11;2.45;;;1.50;;
33786;SDS011;29742;51.540;9.358;2023-02-11T04:39:12;1.73;;;1.38;;
33786;SDS011;29742;51.540;9.358;2023-02-11T04:44:12;1.80;;;1.27;;
33786;SDS011;29742;51.540;9.358;2023-02-11T04:49:13;1.70;;;1.17;;
33786;SDS011;29742;51.540;9.358;2023-02-11T04:54:15;2.45;;;1.38;;
33786;SDS011;29742;51.540;9.358;2023-02-11T04:59:15;1.48;;;1.08;;
33786;SDS011;29742;51.540;9.358;2023-02-11T05:04:15;1.55;;;1.00;;
33786;SDS011;29742;51.540;9.358;2023-02-11T05:09:16;1.30;;;1.20;;
33786;SDS011;29742;51.540;9.358;2023-02-11T05:14:17;1.50;;;1.20;;
33786;SDS011;29742;51.540;9.358;2023-02-11T05:19:17;1.25;;;1.00;;
33786;SDS011;29742;51.540;9.358;2023-02-11T05:24:18;1.27;;;1.08;;
33786;SDS011;29742;51.540;9.358;2023-02-11T05:29:18;1.50;;;1.10;;
33786;SDS011;29742;51.540;9.358;2023-02-11T05:34:19;2.42;;;1.20;;
33786;SDS011;29742;51.540;9.358;2023-02-11T05:39:19;2.25;;;1.30;;
33786;SDS011;29742;51.540;9.358;2023-02-11T05:44:20;1.92;;;1.05;;
33786;SDS011;29742;51.540;9.358;2023-02-11T05:49:20;1.60;;;0.90;;
33786;SDS011;29742;51.540;9.358;2023-02-11T05:54:21;1.73;;;1.30;;
33786;SDS011;29742;51.540;9.358;2023-02-11T05:59:21;1.00;;;0.93;;
33786;SDS011;29742;51.540;9.358;2023-02-11T06:04:21;1.33;;;0.98;;
33786;SDS011;29742;51.540;9.358;2023-02-11T06:09:22;1.75;;;1.40;;
33786;SDS011;29742;51.540;9.358;2023-02-11T06:14:22;1.38;;;1.10;;
33786;SDS011;29742;51.540;9.358;2023-02-11T06:19:22;2.17;;;1.20;;
33786;SDS011;29742;51.540;9.358;2023-02-11T06:24:23;2.17;;;1.40;;
33786;SDS011;29742;51.540;9.358;2023-02-11T06:29:23;1.55;;;0.85;;
33786;SDS011;29742;51.540;9.358;2023-02-11T06:34:24;2.17;;;1.25;;
33786;SDS011;29742;51.540;9.358;2023-02-11T06:39:24;1.15;;;1.00;;
33786;SDS011;29742;51.540;9.358;2023-02-11T06:44:24;1.17;;;0.93;;
33786;SDS011;29742;51.540;9.358;2023-02-11T06:49:25;2.38;;;1.40;;
33786;SDS011;29742;51.540;9.358;2023-02-11T06:54:25;1.35;;;1.10;;
33786;SDS011;29742;51.540;9.358;2023-02-11T06:59:26;1.98;;;1.08;;
33786;SDS011;29742;51.540;9.358;2023-02-11T07:04:26;1.15;;;0.88;;
33786;SDS011;29742;51.540;9.358;2023-02-11T07:09:26;1.75;;;1.23;;
33786;SDS011;29742;51.540;9.358;2023-02-11T07:14:27;2.63;;;1.30;;
33786;SDS011;29742;51.540;9.358;2023-02-11T07:19:27;1.00;;;0.90;;
33786;SDS011;29742;51.540;9.358;2023-02-11T07:24:28;1.70;;;1.20;;
33786;SDS011;29742;51.540;9.358;2023-02-11T07:29:28;2.13;;;0.90;;
33786;SDS011;29742;51.540;9.358;2023-02-11T07:34:28;1.30;;;1.08;;
33786;SDS011;29742;51.540;9.358;2023-02-11T07:39:29;2.17;;;1.45;;
33786;SDS011;29742;51.540;9.358;2023-02-11T07:44:29;1.63;;;1.15;;
33786;SDS011;29742;51.540;9.358;2023-02-11T07:49:32;2.42;;;1.20;;
33786;SDS011;29742;51.540;9.358;2023-02-11T07:54:32;2.22;;;1.20;;
33786;SDS011;29742;51.540;9.358;2023-02-11T07:59:32;1.85;;;1.00;;
33786;SDS011;29742;51.540;9.358;2023-02-11T08:04:33;1.50;;;0.80;;
33786;SDS011;29742;51.540;9.358;2023-02-11T08:09:33;1.42;;;0.98;;
33786;SDS011;29742;51.540;9.358;2023-02-11T08:14:34;1.08;;;0.85;;
33786;SDS011;29742;51.540;9.358;2023-02-11T08:19:34;0.63;;;0.57;;
33786;SDS011;29742;51.540;9.358;2023-02-11T08:24:34;1.00;;;0.80;;
33786;SDS011;29742;51.540;9.358;2023-02-11T08:29:35;0.93;;;0.70;;
33786;SDS011;29742;51.540;9.358;2023-02-11T08:34:35;1.00;;;0.90;;
33786;SDS011;29742;51.540;9.358;2023-02-11T08:39:36;1.83;;;1.00;;
33786;SDS011;29742;51.540;9.358;2023-02-11T08:44:37;1.00;;;0.77;;
33786;SDS011;29742;51.540;9.358;2023-02-11T08:49:37;1.30;;;0.98;;
33786;SDS011;29742;51.540;9.358;2023-02-11T08:54:37;1.13;;;0.90;;
33786;SDS011;29742;51.540;9.358;2023-02-11T08:59:38;0.88;;;0.60;;
33786;SDS011;29742;51.540;9.358;2023-02-11T09:04:39;0.60;;;0.60;;
33786;SDS011;29742;51.540;9.358;2023-02-11T09:09:39;0.50;;;0.50;;
33786;SDS011;29742;51.540;9.358;2023-02-11T09:14:39;0.85;;;0.80;;
33786;SDS011;29742;51.540;9.358;2023-02-11T09:19:40;0.70;;;0.60;;
33786;SDS011;29742;51.540;9.358;2023-02-11T09:24:41;1.23;;;0.70;;
33786;SDS011;29742;51.540;9.358;2023-02-11T09:29:41;0.70;;;0.70;;
33786;SDS011;29742;51.540;9.358;2023-02-11T09:34:42;0.57;;;0.50;;
33786;SDS011;29742;51.540;9.358;2023-02-11T09:39:42;0.98;;;0.75;;
33786;SDS011;29742;51.540;9.358;2023-02-11T09:44:45;1.70;;;0.70;;
33786;SDS011;29742;51.540;9.358;2023-02-11T09:49:47;1.00;;;0.73;;
33786;SDS011;29742;51.540;9.358;2023-02-11T09:54:56;1.27;;;0.80;;
33786;SDS011;29742;51.540;9.358;2023-02-11T09:59:58;1.40;;;0.60;;
33786;SDS011;29742;51.540;9.358;2023-02-11T10:10:49;3.45;;;0.80;;
33786;SDS011;29742;51.540;9.358;2023-02-11T10:26:19;0.77;;;0.47;;
33786;SDS011;29742;51.540;9.358;2023-02-11T10:31:33;2.97;;;0.57;;
33786;SDS011;29742;51.540;9.358;2023-02-11T10:36:40;1.73;;;0.70;;
33786;SDS011;29742;51.540;9.358;2023-02-11T10:41:43;0.85;;;0.68;;
33786;SDS011;29742;51.540;9.358;2023-02-11T10:46:49;2.72;;;0.80;;
33786;SDS011;29742;51.540;9.358;2023-02-11T10:51:50;1.38;;;0.60;;
33786;SDS011;29742;51.540;9.358;2023-02-11T10:57:22;0.88;;;0.73;;
33786;SDS011;29742;51.540;9.358;2023-02-11T11:02:50;3.50;;;0.80;;
33786;SDS011;29742;51.540;9.358;2023-02-11T11:07:57;1.35;;;0.70;;
33786;SDS011;29742;51.540;9.358;2023-02-11T11:12:59;2.08;;;0.80;;
33786;SDS011;29742;51.540;9.358;2023-02-11T11:23:17;1.35;;;0.73;;
33786;SDS011;29742;51.540;9.358;2023-02-11T11:28:21;2.58;;;0.68;;
33786;SDS011;29742;51.540;9.358;2023-02-11T11:33:25;1.10;;;0.82;;
33786;SDS011;29742;51.540;9.358;2023-02-11T11:38:27;1.40;;;0.83;;
33786;SDS011;29742;51.540;9.358;2023-02-11T11:43:28;1.00;;;0.70;;
33786;SDS011;29742;51.540;9.358;2023-02-11T11:48:36;1.45;;;0.82;;
33786;SDS011;29742;51.540;9.358;2023-02-11T11:53:40;1.13;;;0.85;;
33786;SDS011;29742;51.540;9.358;2023-02-11T11:58:51;2.75;;;1.33;;
33786;SDS011;29742;51.540;9.358;2023-02-11T12:09:17;2.20;;;0.95;;
33786;SDS011;29742;51.540;9.358;2023-02-11T12:30:32;2.13;;;1.00;;
33786;SDS011;29742;51.540;9.358;2023-02-11T12:35:55;1.30;;;0.82;;
33786;SDS011;29742;51.540;9.358;2023-02-11T12:41:13;3.10;;;1.13;;
33786;SDS011;29742;51.540;9.358;2023-02-11T12:46:41;0.85;;;0.70;;
33786;SDS011;29742;51.540;9.358;2023-02-11T12:52:14;1.58;;;0.95;;
33786;SDS011;29742;51.540;9.358;2023-02-11T12:57:23;3.17;;;1.00;;
33786;SDS011;29742;51.540;9.358;2023-02-11T13:07:33;1.23;;;1.10;;
33786;SDS011;29742;51.540;9.358;2023-02-11T13:12:36;1.77;;;1.05;;
33786;SDS011;29742;51.540;9.358;2023-02-11T13:23:25;3.90;;;1.02;;
33786;SDS011;29742;51.540;9.358;2023-02-11T13:33:35;2.13;;;1.25;;
33786;SDS011;29742;51.540;9.358;2023-02-11T13:38:38;1.80;;;1.00;;
33786;SDS011;29742;51.540;9.358;2023-02-11T13:43:38;1.02;;;0.88;;
33786;SDS011;29742;51.540;9.358;2023-02-11T13:48:49;1.58;;;1.10;;
33786;SDS011;29742;51.540;9.358;2023-02-11T13:53:53;1.42;;;1.30;;
33786;SDS011;29742;51.540;9.358;2023-02-11T13:58:55;1.63;;;1.08;;
33786;SDS011;29742;51.540;9.358;2023-02-11T14:04:04;2.05;;;1.30;;
33786;SDS011;29742;51.540;9.358;2023-02-11T14:09:44;2.22;;;1.20;;
33786;SDS011;29742;51.540;9.358;2023-02-11T14:14:58;1.48;;;1.08;;
33786;SDS011;29742;51.540;9.358;2023-02-11T14:20:01;2.13;;;1.35;;
33786;SDS011;29742;51.540;9.358;2023-02-11T14:25:03;2.42;;;1.15;;
33786;SDS011;29742;51.540;9.358;2023-02-11T14:46:10;2.28;;;1.30;;
33786;SDS011;29742;51.540;9.358;2023-02-11T14:56:18;1.95;;;1.55;;
33786;SDS011;29742;51.540;9.358;2023-02-11T15:01:31;2.08;;;1.45;;
33786;SDS011;29742;51.540;9.358;2023-02-11T15:06:38;2.78;;;1.90;;
33786;SDS011;29742;51.540;9.358;2023-02-11T15:11:40;2.60;;;1.63;;
33786;SDS011;29742;51.540;9.358;2023-02-11T15:16:42;1.75;;;1.30;;
33786;SDS011;29742;51.540;9.358;2023-02-11T15:21:43;2.63;;;1.73;;
33786;SDS011;29742;51.540;9.358;2023-02-11T15:26:44;3.28;;;2.13;;
33786;SDS011;29742;51.540;9.358;2023-02-11T15:31:44;1.92;;;1.70;;
33786;SDS011;29742;51.540;9.358;2023-02-11T15:36:45;4.25;;;1.77;;
33786;SDS011;29742;51.540;9.358;2023-02-11T15:41:45;3.83;;;2.05;;
33786;SDS011;29742;51.540;9.358;2023-02-11T15:46:48;4.00;;;2.35;;
33786;SDS011;29742;51.540;9.358;2023-02-11T15:51:49;2.70;;;1.98;;
33786;SDS011;29742;51.540;9.358;2023-02-11T15:56:51;3.22;;;1.95;;
33786;SDS011;29742;51.540;9.358;2023-02-11T16:01:54;2.38;;;1.75;;
33786;SDS011;29742;51.540;9.358;2023-02-11T16:06:55;3.28;;;2.20;;
33786;SDS011;29742;51.540;9.358;2023-02-11T16:11:58;2.60;;;2.03;;
33786;SDS011;29742;51.540;9.358;2023-02-11T16:17:03;3.30;;;2.20;;
33786;SDS011;29742;51.540;9.358;2023-02-11T16:22:08;3.15;;;2.15;;
33786;SDS011;29742;51.540;9.358;2023-02-11T16:32:28;3.45;;;1.80;;
33786;SDS011;29742;51.540;9.358;2023-02-11T16:37:28;2.97;;;1.98;;
33786;SDS011;29742;51.540;9.358;2023-02-11T16:42:29;3.63;;;2.22;;
33786;SDS011;29742;51.540;9.358;2023-02-11T16:47:30;3.92;;;2.38;;
33786;SDS011;29742;51.540;9.358;2023-02-11T16:52:30;3.72;;;2.15;;
33786;SDS011;29742;51.540;9.358;2023-02-11T16:57:31;2.60;;;2.03;;
33786;SDS011;29742;51.540;9.358;2023-02-11T17:02:32;3.22;;;2.05;;
33786;SDS011;29742;51.540;9.358;2023-02-11T17:07:34;3.10;;;2.08;;
33786;SDS011;29742;51.540;9.358;2023-02-11T17:12:34;4.70;;;2.08;;
33786;SDS011;29742;51.540;9.358;2023-02-11T17:17:35;2.63;;;1.92;;
33786;SDS011;29742;51.540;9.358;2023-02-11T17:22:35;2.60;;;1.88;;
33786;SDS011;29742;51.540;9.358;2023-02-11T17:27:36;2.28;;;1.58;;
33786;SDS011;29742;51.540;9.358;2023-02-11T17:32:36;2.80;;;1.88;;
33786;SDS011;29742;51.540;9.358;2023-02-11T17:37:37;2.03;;;1.63;;
33786;SDS011;29742;51.540;9.358;2023-02-11T17:42:37;2.15;;;1.50;;
33786;SDS011;29742;51.540;9.358;2023-02-11T17:47:37;2.35;;;2.00;;
33786;SDS011;29742;51.540;9.358;2023-02-11T17:52:38;2.15;;;1.65;;
33786;SDS011;29742;51.540;9.358;2023-02-11T17:57:38;2.85;;;1.85;;
33786;SDS011;29742;51.540;9.358;2023-02-11T18:02:39;3.17;;;1.95;;
33786;SDS011;29742;51.540;9.358;2023-02-11T18:07:39;2.38;;;1.65;;
33786;SDS011;29742;51.540;9.358;2023-02-11T18:12:39;2.60;;;1.77;;
33786;SDS011;29742;51.540;9.358;2023-02-11T18:17:40;3.50;;;1.60;;
33786;SDS011;29742;51.540;9.358;2023-02-11T18:22:40;4.70;;;2.20;;
33786;SDS011;29742;51.540;9.358;2023-02-11T18:27:43;4.90;;;2.25;;
33786;SDS011;29742;51.540;9.358;2023-02-11T18:32:43;4.32;;;2.42;;
33786;SDS011;29742;51.540;9.358;2023-02-11T18:37:44;3.38;;;2.13;;
33786;SDS011;29742;51.540;9.358;2023-02-11T18:42:44;3.83;;;2.25;;
33786;SDS011;29742;51.540;9.358;2023-02-11T18:47:45;3.28;;;2.28;;
33786;SDS011;29742;51.540;9.358;2023-02-11T18:52:45;4.40;;;2.10;;
33786;SDS011;29742;51.540;9.358;2023-02-11T18:57:46;3.25;;;2.08;;
33786;SDS011;29742;51.540;9.358;2023-02-11T19:02:46;2.88;;;2.33;;
33786;SDS011;29742;51.540;9.358;2023-02-11T19:07:46;4.10;;;2.20;;
33786;SDS011;29742;51.540;9.358;2023-02-11T19:12:47;3.00;;;2.20;;
33786;SDS011;29742;51.540;9.358;2023-02-11T19:17:47;2.40;;;1.60;;
33786;SDS011;29742;51.540;9.358;2023-02-11T19:22:48;2.55;;;1.98;;
33786;SDS011;29742;51.540;9.358;2023-02-11T19:27:48;3.35;;;1.95;;
33786;SDS011;29742;51.540;9.358;2023-02-11T19:32:48;2.63;;;1.88;;
33786;SDS011;29742;51.540;9.358;2023-02-11T19:37:51;3.45;;;2.05;;
33786;SDS011;29742;51.540;9.358;2023-02-11T19:42:51;2.83;;;1.55;;
33786;SDS011;29742;51.540;9.358;2023-02-11T19:47:55;3.17;;;1.95;;
33786;SDS011;29742;51.540;9.358;2023-02-11T19:52:55;2.63;;;1.73;;
33786;SDS011;29742;51.540;9.358;2023-02-11T19:57:56;3.55;;;2.03;;
33786;SDS011;29742;51.540;9.358;2023-02-11T20:02:56;2.40;;;1.80;;
33786;SDS011;29742;51.540;9.358;2023-02-11T20:07:56;3.03;;;1.75;;
33786;SDS011;29742;51.540;9.358;2023-02-11T20:12:57;2.28;;;1.27;;
33786;SDS011;29742;51.540;9.358;2023-02-11T20:17:57;2.22;;;1.55;;
33786;SDS011;29742;51.540;9.358;2023-02-11T20:22:57;2.80;;;1.70;;
33786;SDS011;29742;51.540;9.358;2023-02-11T20:27:58;2.72;;;1.77;;
33786;SDS011;29742;51.540;9.358;2023-02-11T20:32:58;3.20;;;2.03;;
33786;SDS011;29742;51.540;9.358;2023-02-11T20:37:59;2.53;;;1.90;;
33786;SDS011;29742;51.540;9.358;2023-02-11T20:43:01;2.60;;;1.83;;
33786;SDS011;29742;51.540;9.358;2023-02-11T20:48:02;1.95;;;1.50;;
33786;SDS011;29742;51.540;9.358;2023-02-11T20:53:02;2.05;;;1.50;;
33786;SDS011;29742;51.540;9.358;2023-02-11T20:58:03;3.33;;;1.70;;
33786;SDS011;29742;51.540;9.358;2023-02-11T21:03:05;1.90;;;1.45;;
33786;SDS011;29742;51.540;9.358;2023-02-11T21:08:05;2.22;;;1.73;;
33786;SDS011;29742;51.540;9.358;2023-02-11T21:13:06;3.65;;;1.48;;
33786;SDS011;29742;51.540;9.358;2023-02-11T21:18:06;2.28;;;1.25;;
33786;SDS011;29742;51.540;9.358;2023-02-11T21:23:06;2.05;;;1.45;;
33786;SDS011;29742;51.540;9.358;2023-02-11T21:28:07;2.53;;;1.50;;
33786;SDS011;29742;51.540;9.358;2023-02-11T21:33:07;1.65;;;1.25;;
33786;SDS011;29742;51.540;9.358;2023-02-11T21:38:07;1.67;;;1.38;;
33786;SDS011;29742;51.540;9.358;2023-02-11T21:43:08;3.10;;;1.60;;
33786;SDS011;29742;51.540;9.358;2023-02-11T21:48:09;2.85;;;1.60;;
33786;SDS011;29742;51.540;9.358;2023-02-11T21:53:09;1.73;;;1.20;;
33786;SDS011;29742;51.540;9.358;2023-02-11T21:58:10;1.70;;;1.40;;
33786;SDS011;29742;51.540;9.358;2023-02-11T22:03:12;2.25;;;1.70;;
33786;SDS011;29742;51.540;9.358;2023-02-11T22:08:12;2.08;;;1.55;;
33786;SDS011;29742;51.540;9.358;2023-02-11T22:13:12;3.28;;;2.00;;
33786;SDS011;29742;51.540;9.358;2023-02-11T22:18:13;2.47;;;1.63;;
33786;SDS011;29742;51.540;9.358;2023-02-11T22:23:13;2.15;;;1.95;;
33786;SDS011;29742;51.540;9.358;2023-02-11T22:28:14;2.65;;;1.83;;
33786;SDS011;29742;51.540;9.358;2023-02-11T22:33:14;3.67;;;1.77;;
33786;SDS011;29742;51.540;9.358;2023-02-11T22:38:14;2.67;;;1.90;;
33786;SDS011;29742;51.540;9.358;2023-02-11T22:43:15;2.15;;;1.50;;
33786;SDS011;29742;51.540;9.358;2023-02-11T22:48:15;1.63;;;1.27;;
33786;SDS011;29742;51.540;9.358;2023-02-11T22:53:16;2.38;;;1.50;;
33786;SDS011;29742;51.540;9.358;2023-02-11T22:58:16;1.88;;;1.40;;
33786;SDS011;29742;51.540;9.358;2023-02-11T23:03:17;1.40;;;1.10;;
33786;SDS011;29742;51.540;9.358;2023-02-11T23:08:18;2.28;;;1.45;;
33786;SDS011;29742;51.540;9.358;2023-02-11T23:13:18;2.42;;;1.83;;
33786;SDS011;29742;51.540;9.358;2023-02-11T23:18:18;1.50;;;1.20;;
33786;SDS011;29742;51.540;9.358;2023-02-11T23:23:19;1.77;;;1.25;;
33786;SDS011;29742;51.540;9.358;2023-02-11T23:28:19;1.73;;;1.33;;
33786;SDS011;29742;51.540;9.358;2023-02-11T23:33:20;2.90;;;1.67;;
33786;SDS011;29742;51.540;9.358;2023-02-11T23:38:21;1.92;;;1.42;;
33786;SDS011;29742;51.540;9.358;2023-02-11T23:43:21;1.80;;;1.70;;
33786;SDS011;29742;51.540;9.358;2023-02-11T23:48:21;2.97;;;2.10;;
33786;SDS011;29742;51.540;9.358;2023-02-11T23:53:22;3.75;;;1.77;;
33786;SDS011;29742;51.540;9.358;2023-02-11T23:58:22;2.03;;;1.50;;
